createdAt,value
2023-04-17T00:01:39.567Z,9.80
2023-04-17T00:04:11.002Z,9.80
2023-04-17T00:06:38.482Z,9.80
2023-04-17T00:09:06.048Z,9.80
2023-04-17T00:11:32.882Z,9.80
2023-04-17T00:13:59.629Z,9.80
2023-04-17T00:16:27.420Z,9.80
2023-04-17T00:18:54.947Z,9.80
2023-04-17T00:21:21.887Z,9.90
2023-04-17T00:23:48.853Z,9.90
2023-04-17T00:26:16.450Z,9.90
2023-04-17T00:28:43.229Z,9.80
2023-04-17T00:31:09.958Z,9.90
2023-04-17T00:33:36.649Z,9.90
2023-04-17T00:36:03.451Z,9.90
2023-04-17T00:38:30.125Z,9.80
2023-04-17T00:40:56.774Z,9.80
2023-04-17T00:43:23.571Z,9.90
2023-04-17T00:45:50.609Z,9.80
2023-04-17T00:48:18.397Z,9.80
2023-04-17T00:50:45.688Z,9.80
2023-04-17T00:53:13.960Z,9.80
2023-04-17T00:55:42.131Z,9.80
2023-04-17T00:58:09.484Z,9.80
2023-04-17T01:00:36.242Z,9.80
2023-04-17T01:03:03.301Z,9.80
2023-04-17T01:05:30.114Z,9.80
2023-04-17T01:07:58.505Z,9.80
2023-04-17T01:10:25.262Z,9.80
2023-04-17T01:13:02.675Z,9.80
2023-04-17T01:15:29.574Z,9.80
2023-04-17T01:17:56.445Z,9.80
2023-04-17T01:20:23.312Z,9.80
2023-04-17T01:22:50.269Z,9.80
2023-04-17T01:25:17.017Z,9.80
2023-04-17T01:27:43.727Z,9.80
2023-04-17T01:30:11.119Z,9.80
2023-04-17T01:32:37.869Z,9.80
2023-04-17T01:35:04.830Z,9.70
2023-04-17T01:37:31.585Z,9.70
2023-04-17T01:40:01.434Z,9.70
2023-04-17T01:42:28.235Z,9.70
2023-04-17T01:44:54.899Z,9.70
2023-04-17T01:47:21.645Z,9.70
2023-04-17T01:49:48.419Z,9.70
2023-04-17T01:52:15.106Z,9.70
2023-04-17T01:54:41.804Z,9.60
2023-04-17T01:57:08.546Z,9.60
2023-04-17T01:59:35.393Z,9.60
2023-04-17T02:02:02.182Z,9.60
2023-04-17T02:04:29.029Z,9.60
2023-04-17T02:06:55.762Z,9.60
2023-04-17T02:09:22.500Z,9.60
2023-04-17T02:11:49.157Z,9.50
2023-04-17T02:14:17.803Z,9.50
2023-04-17T02:16:45.840Z,9.40
2023-04-17T02:19:13.610Z,9.40
2023-04-17T02:21:40.696Z,9.40
2023-04-17T02:24:07.424Z,9.40
2023-04-17T02:26:34.341Z,9.40
2023-04-17T02:29:01.077Z,9.40
2023-04-17T02:31:27.791Z,9.40
2023-04-17T02:33:54.570Z,9.40
2023-04-17T02:36:21.753Z,9.40
2023-04-17T02:38:48.485Z,9.30
2023-04-17T02:41:15.513Z,9.40
2023-04-17T02:43:42.299Z,9.30
2023-04-17T02:46:09.033Z,9.30
2023-04-17T02:48:35.800Z,9.30
2023-04-17T02:51:02.553Z,9.30
2023-04-17T02:53:29.265Z,9.30
2023-04-17T02:55:55.943Z,9.30
2023-04-17T02:58:22.651Z,9.30
2023-04-17T03:00:49.405Z,9.30
2023-04-17T03:03:16.232Z,9.20
2023-04-17T03:05:43.218Z,9.30
2023-04-17T03:08:09.965Z,9.20
2023-04-17T03:10:36.709Z,9.20
2023-04-17T03:13:04.488Z,9.20
2023-04-17T03:15:31.240Z,9.30
2023-04-17T03:17:58.070Z,9.30
2023-04-17T03:20:24.900Z,9.20
2023-04-17T03:22:51.630Z,9.20
2023-04-17T03:25:18.400Z,9.20
2023-04-17T03:27:45.114Z,9.20
2023-04-17T03:30:12.146Z,9.20
2023-04-17T03:32:38.866Z,9.10
2023-04-17T03:35:06.446Z,9.10
2023-04-17T03:37:33.214Z,9.10
2023-04-17T03:39:59.932Z,9.00
2023-04-17T03:42:27.217Z,9.10
2023-04-17T03:44:53.953Z,9.10
2023-04-17T03:47:20.786Z,9.10
2023-04-17T03:49:47.455Z,9.20
2023-04-17T03:52:14.134Z,9.20
2023-04-17T03:54:40.952Z,9.20
2023-04-17T03:57:07.687Z,9.20
2023-04-17T03:59:34.418Z,9.10
2023-04-17T04:02:01.243Z,9.20
2023-04-17T04:04:28.227Z,9.10
2023-04-17T04:06:57.485Z,9.10
2023-04-17T04:09:25.763Z,9.10
2023-04-17T04:11:52.504Z,9.10
2023-04-17T04:14:19.342Z,9.10
2023-04-17T04:16:46.185Z,9.10
2023-04-17T04:19:13.215Z,9.10
2023-04-17T04:21:42.305Z,9.10
2023-04-17T04:24:10.094Z,9.10
2023-04-17T04:26:37.910Z,9.10
2023-04-17T04:29:04.734Z,9.20
2023-04-17T04:31:32.042Z,9.10
2023-04-17T04:33:59.629Z,9.20
2023-04-17T04:36:30.226Z,9.20
2023-04-17T04:39:00.829Z,9.20
2023-04-17T04:41:29.884Z,9.20
2023-04-17T04:43:56.745Z,9.20
2023-04-17T04:46:23.487Z,9.20
2023-04-17T04:48:50.317Z,9.20
2023-04-17T04:51:19.109Z,9.20
2023-04-17T04:53:46.115Z,9.20
2023-04-17T04:56:12.943Z,9.20
2023-04-17T04:58:39.692Z,9.20
2023-04-17T05:01:06.873Z,9.20
2023-04-17T05:03:34.003Z,9.30
2023-04-17T05:06:00.885Z,9.30
2023-04-17T05:08:27.882Z,9.20
2023-04-17T05:10:54.675Z,9.30
2023-04-17T05:13:21.447Z,9.20
2023-04-17T05:15:48.172Z,9.30
2023-04-17T05:18:14.940Z,9.40
2023-04-17T05:20:41.700Z,9.30
2023-04-17T05:23:08.534Z,9.30
2023-04-17T05:25:35.405Z,9.30
2023-04-17T05:28:02.099Z,9.30
2023-04-17T05:30:28.846Z,9.30
2023-04-17T05:32:55.944Z,9.30
2023-04-17T05:35:22.791Z,9.30
2023-04-17T05:37:49.580Z,9.30
2023-04-17T05:40:16.405Z,9.40
2023-04-17T05:42:43.167Z,9.40
2023-04-17T05:45:13.574Z,9.40
2023-04-17T05:47:41.073Z,9.40
2023-04-17T05:50:08.654Z,9.40
2023-04-17T05:52:38.048Z,9.40
2023-04-17T05:55:06.835Z,9.50
2023-04-17T05:57:33.551Z,9.50
2023-04-17T06:00:00.255Z,9.50
2023-04-17T06:02:27.196Z,9.50
2023-04-17T06:04:54.251Z,9.60
2023-04-17T06:07:21.593Z,9.50
2023-04-17T06:09:48.343Z,9.60
2023-04-17T06:12:16.304Z,9.60
2023-04-17T06:14:43.798Z,9.60
2023-04-17T06:17:12.296Z,9.60
2023-04-17T06:19:39.673Z,9.60
2023-04-17T06:22:06.524Z,9.60
2023-04-17T06:24:33.585Z,9.60
2023-04-17T06:27:00.363Z,9.60
2023-04-17T06:29:27.094Z,9.70
2023-04-17T06:31:53.804Z,9.70
2023-04-17T06:34:20.919Z,9.70
2023-04-17T06:36:48.224Z,9.80
2023-04-17T06:39:15.006Z,9.80
2023-04-17T06:41:41.661Z,9.90
2023-04-17T06:44:08.729Z,9.90
2023-04-17T06:46:35.589Z,9.90
2023-04-17T06:49:02.771Z,10.00
2023-04-17T06:51:29.484Z,9.90
2023-04-17T06:53:56.210Z,10.00
2023-04-17T06:56:24.191Z,10.00
2023-04-17T06:58:51.499Z,10.00
2023-04-17T07:01:18.379Z,10.00
2023-04-17T07:03:46.684Z,10.00
2023-04-17T07:06:13.530Z,10.00
2023-04-17T07:08:40.265Z,10.10
2023-04-17T07:11:07.234Z,10.10
2023-04-17T07:13:33.984Z,10.10
2023-04-17T07:16:01.396Z,10.10
2023-04-17T07:18:30.944Z,10.10
2023-04-17T07:20:57.757Z,10.10
2023-04-17T07:23:24.678Z,10.10
2023-04-17T07:25:51.549Z,10.20
2023-04-17T07:28:18.515Z,10.20
2023-04-17T07:30:45.445Z,10.20
2023-04-17T07:33:12.271Z,10.30
2023-04-17T07:35:39.110Z,10.30
2023-04-17T07:38:05.998Z,10.40
2023-04-17T07:40:36.976Z,10.40
2023-04-17T07:43:04.062Z,10.50
2023-04-17T07:45:30.912Z,10.40
2023-04-17T07:47:57.731Z,10.50
2023-04-17T07:50:24.813Z,10.50
2023-04-17T07:52:51.633Z,10.60
2023-04-17T07:55:18.358Z,10.60
2023-04-17T07:57:46.823Z,10.60
2023-04-17T08:00:14.750Z,10.60
2023-04-17T08:02:42.483Z,10.60
2023-04-17T08:05:10.012Z,10.60
2023-04-17T08:07:37.449Z,10.60
2023-04-17T08:10:04.877Z,10.60
2023-04-17T08:12:31.657Z,10.60
2023-04-17T08:14:58.396Z,10.60
2023-04-17T08:17:26.004Z,10.60
2023-04-17T08:19:57.575Z,10.70
2023-04-17T08:22:25.542Z,10.60
2023-04-17T08:24:57.722Z,10.60
2023-04-17T08:27:28.149Z,10.60
2023-04-17T08:29:54.848Z,10.70
2023-04-17T08:32:21.798Z,10.70
2023-04-17T08:34:48.673Z,10.70
2023-04-17T08:37:15.470Z,10.60
2023-04-17T08:39:42.237Z,10.70
2023-04-17T08:42:15.773Z,10.70
2023-04-17T08:44:45.595Z,10.70
2023-04-17T08:47:13.619Z,10.80
2023-04-17T08:49:43.596Z,10.80
2023-04-17T08:52:11.320Z,10.90
2023-04-17T08:54:38.881Z,10.90
2023-04-17T08:57:06.279Z,10.90
2023-04-17T08:59:33.551Z,11.00
2023-04-17T09:02:05.205Z,11.00
2023-04-17T09:04:36.010Z,11.00
2023-04-17T09:07:04.475Z,11.10
2023-04-17T09:10:00.816Z,11.10
2023-04-17T09:12:27.571Z,11.20
2023-04-17T09:14:54.373Z,11.30
2023-04-17T09:17:21.733Z,11.30
2023-04-17T09:20:09.295Z,11.50
2023-04-17T09:22:37.405Z,11.60
2023-04-17T09:25:05.275Z,11.70
2023-04-17T09:27:32.549Z,11.80
2023-04-17T09:30:01.071Z,11.80
2023-04-17T09:32:29.055Z,11.90
2023-04-17T09:34:58.540Z,11.90
2023-04-17T09:37:25.586Z,12.00
2023-04-17T09:40:00.109Z,12.10
2023-04-17T09:42:28.042Z,12.20
2023-04-17T09:44:55.141Z,12.30
2023-04-17T09:47:25.246Z,12.40
2023-04-17T09:49:52.942Z,12.50
2023-04-17T09:52:23.601Z,12.60
2023-04-17T09:54:53.769Z,12.60
2023-04-17T09:57:21.119Z,12.60
2023-04-17T09:59:49.088Z,12.70
2023-04-17T10:02:18.426Z,12.70
2023-04-17T10:04:46.773Z,12.80
2023-04-17T10:07:14.442Z,12.80
2023-04-17T10:09:42.112Z,12.90
2023-04-17T10:12:20.372Z,12.80
2023-04-17T10:14:51.853Z,12.90
2023-04-17T10:17:34.651Z,12.90
2023-04-17T10:20:17.530Z,12.90
2023-04-17T10:22:45.193Z,13.00
2023-04-17T10:25:12.604Z,13.10
2023-04-17T10:27:42.348Z,13.10
2023-04-17T10:30:12.864Z,13.20
2023-04-17T10:32:42.318Z,13.10
2023-04-17T10:35:18.070Z,13.10
2023-04-17T10:37:47.931Z,13.10
2023-04-17T10:40:30.037Z,13.10
2023-04-17T10:43:23.594Z,13.00
2023-04-17T10:45:55.279Z,13.00
2023-04-17T10:48:38.355Z,13.10
2023-04-17T10:51:24.118Z,13.00
2023-04-17T10:53:57.963Z,13.00
2023-04-17T10:56:25.902Z,13.10
2023-04-17T10:59:03.503Z,13.20
2023-04-17T11:01:50.992Z,13.40
2023-04-17T11:04:25.388Z,13.70
2023-04-17T11:06:55.706Z,13.90
2023-04-17T11:09:28.186Z,14.00
2023-04-17T11:11:58.061Z,14.20
2023-04-17T11:14:24.760Z,14.30
2023-04-17T11:16:52.130Z,14.40
2023-04-17T11:19:24.221Z,14.50
2023-04-17T11:21:58.386Z,14.60
2023-04-17T11:24:30.348Z,14.60
2023-04-17T11:27:03.379Z,14.70
2023-04-17T11:29:30.366Z,14.80
2023-04-17T11:31:58.145Z,14.90
2023-04-17T11:34:26.732Z,14.90
2023-04-17T11:36:58.731Z,15.00
2023-04-17T11:39:28.687Z,15.10
2023-04-17T11:41:57.129Z,15.20
2023-04-17T11:44:24.764Z,15.20
2023-04-17T11:46:52.552Z,15.40
2023-04-17T11:49:28.527Z,15.50
2023-04-17T11:51:56.719Z,15.50
2023-04-17T11:54:27.554Z,15.50
2023-04-17T11:57:11.438Z,15.60
2023-04-17T11:59:42.150Z,15.60
2023-04-17T12:02:09.649Z,15.70
2023-04-17T12:04:37.907Z,15.80
2023-04-17T12:07:06.062Z,15.80
2023-04-17T12:09:34.244Z,15.90
2023-04-17T12:12:02.696Z,16.00
2023-04-17T12:14:29.618Z,16.10
2023-04-17T12:16:56.377Z,16.10
2023-04-17T12:19:25.484Z,16.10
2023-04-17T12:21:52.555Z,16.20
2023-04-17T12:24:20.740Z,16.20
2023-04-17T12:26:48.805Z,16.30
2023-04-17T12:29:16.561Z,16.30
2023-04-17T12:31:44.355Z,16.20
2023-04-17T12:34:11.414Z,16.20
2023-04-17T12:36:38.650Z,16.20
2023-04-17T12:39:05.412Z,16.20
2023-04-17T12:41:32.158Z,16.20
2023-04-17T12:44:01.784Z,16.30
2023-04-17T12:46:28.810Z,16.40
2023-04-17T12:48:58.588Z,16.30
2023-04-17T12:51:28.500Z,16.20
2023-04-17T12:53:56.247Z,16.20
2023-04-17T12:56:23.425Z,16.20
2023-04-17T12:58:50.169Z,16.30
2023-04-17T13:01:16.970Z,16.30
2023-04-17T13:03:44.021Z,16.30
2023-04-17T13:06:11.001Z,16.10
2023-04-17T13:08:37.699Z,16.10
2023-04-17T13:11:04.698Z,16.20
2023-04-17T13:13:31.507Z,16.30
2023-04-17T13:15:58.910Z,16.40
2023-04-17T13:18:26.348Z,16.50
2023-04-17T13:20:53.052Z,16.40
2023-04-17T13:23:19.729Z,16.40
2023-04-17T13:25:47.245Z,16.40
2023-04-17T13:28:13.965Z,16.40
2023-04-17T13:30:41.049Z,16.40
2023-04-17T13:33:08.019Z,16.40
2023-04-17T13:35:34.850Z,16.40
2023-04-17T13:38:03.229Z,16.50
2023-04-17T13:40:30.618Z,16.60
2023-04-17T13:42:57.389Z,16.60
2023-04-17T13:45:24.448Z,16.60
2023-04-17T13:47:51.400Z,16.60
2023-04-17T13:50:18.195Z,16.50
2023-04-17T13:52:44.935Z,16.50
2023-04-17T13:55:14.645Z,16.50
2023-04-17T13:57:41.536Z,16.40
2023-04-17T14:00:08.960Z,16.30
2023-04-17T14:02:35.835Z,16.30
2023-04-17T14:05:02.794Z,16.40
2023-04-17T14:07:30.116Z,16.50
2023-04-17T14:09:56.897Z,16.50
2023-04-17T14:12:23.644Z,16.60
2023-04-17T14:14:50.563Z,16.70
2023-04-17T14:17:18.052Z,16.90
2023-04-17T14:19:44.802Z,17.10
2023-04-17T14:22:11.542Z,17.20
2023-04-17T14:24:38.277Z,17.20
2023-04-17T14:27:05.337Z,17.10
2023-04-17T14:29:32.029Z,17.00
2023-04-17T14:31:58.936Z,16.90
2023-04-17T14:34:25.930Z,16.90
2023-04-17T14:36:53.146Z,17.00
2023-04-17T14:39:19.949Z,17.10
2023-04-17T14:41:46.812Z,17.20
2023-04-17T14:44:13.786Z,17.30
2023-04-17T14:46:40.695Z,17.30
2023-04-17T14:49:07.857Z,17.40
2023-04-17T14:51:34.615Z,17.40
2023-04-17T14:54:01.396Z,17.50
2023-04-17T14:56:28.216Z,17.40
2023-04-17T14:58:55.005Z,17.30
2023-04-17T15:01:21.763Z,17.40
2023-04-17T15:03:49.147Z,17.50
2023-04-17T15:06:16.923Z,17.50
2023-04-17T15:08:43.730Z,17.40
2023-04-17T15:11:10.793Z,17.30
2023-04-17T15:13:39.517Z,17.30
2023-04-17T15:16:06.683Z,17.40
2023-04-17T15:18:34.669Z,17.40
2023-04-17T15:21:01.529Z,17.40
2023-04-17T15:23:29.672Z,17.60
2023-04-17T15:25:57.859Z,17.60
2023-04-17T15:28:25.336Z,17.80
2023-04-17T15:30:52.093Z,17.80
2023-04-17T15:33:19.142Z,17.70
2023-04-17T15:35:45.993Z,17.60
2023-04-17T15:38:12.810Z,17.60
2023-04-17T15:40:39.470Z,17.60
2023-04-17T15:43:06.234Z,17.60
2023-04-17T15:45:32.903Z,17.60
2023-04-17T15:48:00.979Z,17.50
2023-04-17T15:50:27.914Z,17.50
2023-04-17T15:52:54.647Z,17.60
2023-04-17T15:55:21.520Z,17.60
2023-04-17T15:57:48.278Z,17.70
2023-04-17T16:00:15.648Z,17.80
2023-04-17T16:02:42.743Z,17.70
2023-04-17T16:05:09.732Z,17.70
2023-04-17T16:07:36.517Z,17.60
2023-04-17T16:10:03.307Z,17.50
2023-04-17T16:12:29.986Z,17.50
2023-04-17T16:14:56.698Z,17.40
2023-04-17T16:17:23.428Z,17.50
2023-04-17T16:19:50.847Z,17.50
2023-04-17T16:22:19.180Z,17.60
2023-04-17T16:24:45.885Z,17.40
2023-04-17T16:27:12.706Z,17.20
2023-04-17T16:29:39.437Z,17.10
2023-04-17T16:32:06.177Z,16.90
2023-04-17T16:34:33.333Z,16.80
2023-04-17T16:37:00.242Z,16.70
2023-04-17T16:39:26.958Z,16.60
2023-04-17T16:41:53.734Z,16.50
2023-04-17T16:44:20.489Z,16.40
2023-04-17T16:47:05.598Z,16.30
2023-04-17T16:49:36.553Z,16.30
2023-04-17T16:52:03.331Z,16.40
2023-04-17T16:54:30.026Z,16.40
2023-04-17T16:56:57.185Z,16.50
2023-04-17T16:59:24.049Z,16.50
2023-04-17T17:01:50.793Z,16.40
2023-04-17T17:04:17.589Z,16.50
2023-04-17T17:06:44.334Z,16.40
2023-04-17T17:09:11.253Z,16.40
2023-04-17T17:11:38.172Z,16.30
2023-04-17T17:14:04.994Z,16.30
2023-04-17T17:16:31.733Z,16.30
2023-04-17T17:19:00.142Z,16.20
2023-04-17T17:21:28.059Z,16.20
2023-04-17T17:23:54.827Z,16.10
2023-04-17T17:26:21.556Z,16.00
2023-04-17T17:28:51.246Z,16.00
2023-04-17T17:31:18.363Z,16.00
2023-04-17T17:33:49.947Z,16.00
2023-04-17T17:36:17.253Z,15.90
2023-04-17T17:38:44.539Z,15.90
2023-04-17T17:41:11.521Z,15.80
2023-04-17T17:43:38.261Z,15.80
2023-04-17T17:46:05.284Z,15.60
2023-04-17T17:48:33.726Z,15.60
2023-04-17T17:51:00.437Z,15.50
2023-04-17T17:53:27.324Z,15.40
2023-04-17T17:55:55.778Z,15.40
2023-04-17T17:58:22.830Z,15.40
2023-04-17T18:00:50.384Z,15.20
2023-04-17T18:03:18.239Z,15.20
2023-04-17T18:05:46.561Z,15.00
2023-04-17T18:08:14.476Z,14.80
2023-04-17T18:10:41.170Z,14.70
2023-04-17T18:13:08.252Z,14.60
2023-04-17T18:15:36.487Z,14.50
2023-04-17T18:18:03.501Z,14.40
2023-04-17T18:20:30.212Z,14.30
2023-04-17T18:22:57.656Z,14.20
2023-04-17T18:25:24.532Z,14.00
2023-04-17T18:27:51.290Z,14.00
2023-04-17T18:30:17.998Z,13.80
2023-04-17T18:32:44.793Z,13.70
2023-04-17T18:35:11.643Z,13.60
2023-04-17T18:37:39.568Z,13.60
2023-04-17T18:40:07.920Z,13.50
2023-04-17T18:42:34.683Z,13.40
2023-04-17T18:45:01.436Z,13.40
2023-04-17T18:47:28.340Z,13.30
2023-04-17T18:49:55.071Z,13.30
2023-04-17T18:52:21.945Z,13.20
2023-04-17T18:54:48.794Z,13.20
2023-04-17T18:57:15.555Z,13.00
2023-04-17T18:59:43.267Z,13.00
2023-04-17T19:02:10.289Z,12.90
2023-04-17T19:04:37.102Z,12.80
2023-04-17T19:07:04.015Z,12.80
2023-04-17T19:09:30.745Z,12.70
2023-04-17T19:11:58.455Z,12.60
2023-04-17T19:14:25.291Z,12.50
2023-04-17T19:16:52.114Z,12.40
2023-04-17T19:19:18.935Z,12.30
2023-04-17T19:21:45.610Z,12.20
2023-04-17T19:24:12.360Z,12.10
2023-04-17T19:26:39.119Z,12.00
2023-04-17T19:29:05.966Z,11.90
2023-04-17T19:31:33.427Z,11.90
2023-04-17T19:34:01.011Z,11.80
2023-04-17T19:36:28.188Z,11.70
2023-04-17T19:38:59.056Z,11.60
2023-04-17T19:41:26.362Z,11.50
2023-04-17T19:43:54.154Z,11.50
2023-04-17T19:46:22.339Z,11.40
2023-04-17T19:48:49.585Z,11.30
2023-04-17T19:51:16.849Z,11.30
2023-04-17T19:53:45.340Z,11.20
2023-04-17T19:56:12.123Z,11.20
2023-04-17T19:58:40.207Z,11.10
2023-04-17T20:01:06.970Z,11.20
2023-04-17T20:03:34.229Z,11.10
2023-04-17T20:06:03.492Z,11.00
2023-04-17T20:08:30.559Z,11.00
2023-04-17T20:10:57.320Z,11.00
2023-04-17T20:13:24.047Z,11.00
2023-04-17T20:15:50.760Z,10.90
2023-04-17T20:18:17.676Z,10.90
2023-04-17T20:20:44.539Z,10.90
2023-04-17T20:23:11.426Z,10.90
2023-04-17T20:25:38.310Z,10.80
2023-04-17T20:28:05.313Z,10.80
2023-04-17T20:30:32.300Z,10.70
2023-04-17T20:33:00.325Z,10.70
2023-04-17T20:35:27.208Z,10.70
2023-04-17T20:37:53.904Z,10.60
2023-04-17T20:40:20.663Z,10.60
2023-04-17T20:42:47.594Z,10.60
2023-04-17T20:45:14.890Z,10.60
2023-04-17T20:50:15.178Z,10.50
2023-04-17T20:52:41.972Z,10.50
2023-04-17T20:55:09.130Z,10.40
2023-04-17T20:57:36.000Z,10.40
2023-04-17T21:00:03.431Z,10.40
2023-04-17T21:02:31.870Z,10.40
2023-04-17T21:05:01.128Z,10.30
2023-04-17T21:07:27.845Z,10.30
2023-04-17T21:09:54.607Z,10.30
2023-04-17T21:12:21.324Z,10.30
2023-04-17T21:14:47.971Z,10.30
2023-04-17T21:17:14.706Z,10.20
2023-04-17T21:19:41.603Z,10.20
2023-04-17T21:22:09.063Z,10.20
2023-04-17T21:24:36.627Z,10.10
2023-04-17T21:27:03.965Z,10.10
2023-04-17T21:29:30.730Z,10.20
2023-04-17T21:31:57.631Z,10.10
2023-04-17T21:34:25.149Z,10.10
2023-04-17T21:36:54.183Z,10.10
2023-04-17T21:39:21.954Z,10.10
2023-04-17T21:41:48.878Z,10.10
2023-04-17T21:44:15.906Z,10.00
2023-04-17T21:46:46.207Z,10.00
2023-04-17T21:49:13.080Z,10.00
2023-04-17T21:51:39.862Z,10.00
2023-04-17T21:54:07.795Z,10.00
2023-04-17T21:56:34.535Z,10.00
2023-04-17T21:59:01.435Z,10.00
2023-04-17T22:01:28.348Z,9.90
2023-04-17T22:03:55.214Z,9.90
2023-04-17T22:06:22.187Z,9.90
2023-04-17T22:08:49.038Z,9.90
2023-04-17T22:11:15.803Z,9.90
2023-04-17T22:13:42.815Z,9.90
2023-04-17T22:16:09.615Z,9.90
2023-04-17T22:18:36.414Z,9.90
2023-04-17T22:21:03.599Z,9.80
2023-04-17T22:23:30.507Z,9.80
2023-04-17T22:25:57.223Z,9.80
2023-04-17T22:28:23.944Z,9.80
2023-04-17T22:30:52.033Z,9.80
2023-04-17T22:33:18.838Z,9.80
2023-04-17T22:35:45.612Z,9.80
2023-04-17T22:38:12.394Z,9.70
2023-04-17T22:40:40.196Z,9.80
2023-04-17T22:43:06.947Z,9.80
2023-04-17T22:45:34.086Z,9.70
2023-04-17T22:48:01.086Z,9.70
2023-04-17T22:50:30.442Z,9.70
2023-04-17T22:52:57.413Z,9.70
2023-04-17T22:55:24.156Z,9.70
2023-04-17T22:57:50.933Z,9.70
2023-04-17T23:00:19.994Z,9.70
2023-04-17T23:02:47.361Z,9.60
2023-04-17T23:05:14.410Z,9.60
2023-04-17T23:07:41.231Z,9.60
2023-04-17T23:10:08.313Z,9.60
2023-04-17T23:12:35.026Z,9.60
2023-04-17T23:15:01.893Z,9.60
2023-04-17T23:17:28.650Z,9.60
2023-04-17T23:19:55.673Z,9.50
2023-04-17T23:22:22.496Z,9.50
2023-04-17T23:24:49.298Z,9.50
2023-04-17T23:27:15.979Z,9.50
2023-04-17T23:29:42.709Z,9.50
2023-04-17T23:32:09.614Z,9.50
2023-04-17T23:34:37.520Z,9.50
2023-04-17T23:37:04.314Z,9.50
2023-04-17T23:39:31.068Z,9.40
2023-04-17T23:41:58.981Z,9.50
2023-04-17T23:44:25.760Z,9.40
2023-04-17T23:46:52.588Z,9.40
2023-04-17T23:49:19.326Z,9.40
2023-04-17T23:51:46.032Z,9.40
2023-04-17T23:54:12.997Z,9.30
2023-04-17T23:56:40.028Z,9.30
2023-04-17T23:59:06.824Z,9.30
